sensor_id;sensor_type;location;lat;lon;timestamp;P1;durP1;ratioP1;P2;durP2;ratioP2
79204;SDS011;68632;47.512;19.104;2023-07-29T00:00:44;10.85;;;5.78;;
79204;SDS011;68632;47.512;19.104;2023-07-29T00:01:46;9.68;;;5.05;;
79204;SDS011;68632;47.512;19.104;2023-07-29T00:02:49;10.95;;;5.30;;
79204;SDS011;68632;47.512;19.104;2023-07-29T00:03:51;7.82;;;5.63;;
79204;SDS011;68632;47.512;19.104;2023-07-29T00:04:53;10.45;;;5.72;;
79204;SDS011;68632;47.512;19.104;2023-07-29T00:05:55;8.70;;;5.50;;
79204;SDS011;68632;47.512;19.104;2023-07-29T00:06:58;9.95;;;5.57;;
79204;SDS011;68632;47.512;19.104;2023-07-29T00:08:00;7.32;;;5.78;;
79204;SDS011;68632;47.512;19.104;2023-07-29T00:09:02;10.52;;;5.60;;
79204;SDS011;68632;47.512;19.104;2023-07-29T00:10:05;8.52;;;5.70;;
79204;SDS011;68632;47.512;19.104;2023-07-29T00:11:08;10.02;;;5.45;;
79204;SDS011;68632;47.512;19.104;2023-07-29T00:12:10;10.07;;;5.93;;
79204;SDS011;68632;47.512;19.104;2023-07-29T00:13:12;10.27;;;5.95;;
79204;SDS011;68632;47.512;19.104;2023-07-29T00:14:14;13.52;;;6.72;;
79204;SDS011;68632;47.512;19.104;2023-07-29T00:15:16;8.93;;;5.60;;
79204;SDS011;68632;47.512;19.104;2023-07-29T00:16:19;8.82;;;5.65;;
79204;SDS011;68632;47.512;19.104;2023-07-29T00:17:24;11.95;;;6.25;;
79204;SDS011;68632;47.512;19.104;2023-07-29T00:18:26;10.23;;;6.05;;
79204;SDS011;68632;47.512;19.104;2023-07-29T00:19:29;9.50;;;6.18;;
79204;SDS011;68632;47.512;19.104;2023-07-29T00:20:31;8.68;;;5.78;;
79204;SDS011;68632;47.512;19.104;2023-07-29T00:21:34;8.57;;;5.88;;
79204;SDS011;68632;47.512;19.104;2023-07-29T00:22:36;9.57;;;6.38;;
79204;SDS011;68632;47.512;19.104;2023-07-29T00:23:38;9.02;;;5.53;;
79204;SDS011;68632;47.512;19.104;2023-07-29T00:24:40;8.93;;;5.82;;
79204;SDS011;68632;47.512;19.104;2023-07-29T00:25:43;9.88;;;5.45;;
79204;SDS011;68632;47.512;19.104;2023-07-29T00:26:45;8.10;;;5.78;;
79204;SDS011;68632;47.512;19.104;2023-07-29T00:27:47;8.60;;;6.47;;
79204;SDS011;68632;47.512;19.104;2023-07-29T00:28:49;10.18;;;6.03;;
79204;SDS011;68632;47.512;19.104;2023-07-29T00:29:52;8.25;;;5.60;;
79204;SDS011;68632;47.512;19.104;2023-07-29T00:30:54;8.57;;;6.05;;
79204;SDS011;68632;47.512;19.104;2023-07-29T00:31:56;9.60;;;5.65;;
79204;SDS011;68632;47.512;19.104;2023-07-29T00:32:58;11.35;;;6.40;;
79204;SDS011;68632;47.512;19.104;2023-07-29T00:34:01;11.95;;;5.93;;
79204;SDS011;68632;47.512;19.104;2023-07-29T00:35:03;11.27;;;6.22;;
79204;SDS011;68632;47.512;19.104;2023-07-29T00:36:05;11.73;;;6.13;;
79204;SDS011;68632;47.512;19.104;2023-07-29T00:37:08;11.98;;;6.75;;
79204;SDS011;68632;47.512;19.104;2023-07-29T00:38:10;9.10;;;6.28;;
79204;SDS011;68632;47.512;19.104;2023-07-29T00:39:12;8.35;;;5.97;;
79204;SDS011;68632;47.512;19.104;2023-07-29T00:40:15;9.52;;;5.70;;
79204;SDS011;68632;47.512;19.104;2023-07-29T00:41:21;9.40;;;6.00;;
79204;SDS011;68632;47.512;19.104;2023-07-29T00:42:24;9.27;;;5.97;;
79204;SDS011;68632;47.512;19.104;2023-07-29T00:43:26;10.75;;;6.03;;
79204;SDS011;68632;47.512;19.104;2023-07-29T00:44:28;12.73;;;8.70;;
79204;SDS011;68632;47.512;19.104;2023-07-29T00:45:31;10.43;;;6.75;;
79204;SDS011;68632;47.512;19.104;2023-07-29T00:46:34;11.00;;;6.00;;
79204;SDS011;68632;47.512;19.104;2023-07-29T00:47:37;10.60;;;6.05;;
79204;SDS011;68632;47.512;19.104;2023-07-29T00:48:40;10.23;;;6.05;;
79204;SDS011;68632;47.512;19.104;2023-07-29T00:49:43;10.18;;;5.68;;
79204;SDS011;68632;47.512;19.104;2023-07-29T00:50:46;12.23;;;8.27;;
79204;SDS011;68632;47.512;19.104;2023-07-29T00:51:48;7.70;;;5.32;;
79204;SDS011;68632;47.512;19.104;2023-07-29T00:52:50;11.07;;;5.40;;
79204;SDS011;68632;47.512;19.104;2023-07-29T00:53:52;8.55;;;5.38;;
79204;SDS011;68632;47.512;19.104;2023-07-29T00:54:54;8.50;;;5.47;;
79204;SDS011;68632;47.512;19.104;2023-07-29T00:55:57;8.65;;;5.55;;
79204;SDS011;68632;47.512;19.104;2023-07-29T00:56:59;10.32;;;5.53;;
79204;SDS011;68632;47.512;19.104;2023-07-29T00:58:01;7.55;;;5.15;;
79204;SDS011;68632;47.512;19.104;2023-07-29T00:59:03;9.63;;;4.80;;
79204;SDS011;68632;47.512;19.104;2023-07-29T01:00:06;8.52;;;5.03;;
79204;SDS011;68632;47.512;19.104;2023-07-29T01:01:10;5.75;;;4.35;;
79204;SDS011;68632;47.512;19.104;2023-07-29T01:02:12;8.38;;;4.90;;
79204;SDS011;68632;47.512;19.104;2023-07-29T01:03:14;9.57;;;4.50;;
79204;SDS011;68632;47.512;19.104;2023-07-29T01:04:17;8.32;;;4.60;;
79204;SDS011;68632;47.512;19.104;2023-07-29T01:05:19;7.85;;;4.25;;
79204;SDS011;68632;47.512;19.104;2023-07-29T01:07:39;5.60;;;4.28;;
79204;SDS011;68632;47.512;19.104;2023-07-29T01:08:58;7.22;;;4.38;;
79204;SDS011;68632;47.512;19.104;2023-07-29T01:11:33;7.97;;;4.47;;
79204;SDS011;68632;47.512;19.104;2023-07-29T01:13:58;7.53;;;5.00;;
79204;SDS011;68632;47.512;19.104;2023-07-29T01:16:17;7.93;;;5.10;;
79204;SDS011;68632;47.512;19.104;2023-07-29T01:17:24;9.10;;;4.85;;
79204;SDS011;68632;47.512;19.104;2023-07-29T01:18:32;7.68;;;4.70;;
79204;SDS011;68632;47.512;19.104;2023-07-29T01:20:46;7.75;;;4.70;;
79204;SDS011;68632;47.512;19.104;2023-07-29T01:21:50;9.38;;;5.10;;
79204;SDS011;68632;47.512;19.104;2023-07-29T01:22:52;6.43;;;4.75;;
79204;SDS011;68632;47.512;19.104;2023-07-29T01:23:57;6.32;;;4.53;;
79204;SDS011;68632;47.512;19.104;2023-07-29T01:25:01;7.03;;;5.07;;
79204;SDS011;68632;47.512;19.104;2023-07-29T01:26:03;7.07;;;4.63;;
79204;SDS011;68632;47.512;19.104;2023-07-29T01:27:05;10.43;;;5.03;;
79204;SDS011;68632;47.512;19.104;2023-07-29T01:28:07;7.70;;;4.72;;
79204;SDS011;68632;47.512;19.104;2023-07-29T01:29:10;7.22;;;4.75;;
79204;SDS011;68632;47.512;19.104;2023-07-29T01:30:13;7.78;;;5.10;;
79204;SDS011;68632;47.512;19.104;2023-07-29T01:31:23;7.15;;;4.68;;
79204;SDS011;68632;47.512;19.104;2023-07-29T01:33:40;6.57;;;4.63;;
79204;SDS011;68632;47.512;19.104;2023-07-29T01:34:53;7.13;;;4.85;;
79204;SDS011;68632;47.512;19.104;2023-07-29T01:36:03;7.93;;;5.13;;
79204;SDS011;68632;47.512;19.104;2023-07-29T01:37:08;7.32;;;4.75;;
79204;SDS011;68632;47.512;19.104;2023-07-29T01:38:17;6.35;;;4.45;;
79204;SDS011;68632;47.512;19.104;2023-07-29T01:39:21;10.50;;;5.28;;
79204;SDS011;68632;47.512;19.104;2023-07-29T01:40:27;9.20;;;5.13;;
79204;SDS011;68632;47.512;19.104;2023-07-29T01:41:30;6.78;;;4.45;;
79204;SDS011;68632;47.512;19.104;2023-07-29T01:42:32;7.57;;;4.93;;
79204;SDS011;68632;47.512;19.104;2023-07-29T01:43:34;8.80;;;4.88;;
79204;SDS011;68632;47.512;19.104;2023-07-29T01:44:44;7.47;;;5.07;;
79204;SDS011;68632;47.512;19.104;2023-07-29T01:45:46;7.05;;;4.40;;
79204;SDS011;68632;47.512;19.104;2023-07-29T01:46:49;8.32;;;4.82;;
79204;SDS011;68632;47.512;19.104;2023-07-29T01:47:52;9.73;;;5.00;;
79204;SDS011;68632;47.512;19.104;2023-07-29T01:48:54;9.32;;;4.80;;
79204;SDS011;68632;47.512;19.104;2023-07-29T01:49:56;8.35;;;5.53;;
79204;SDS011;68632;47.512;19.104;2023-07-29T01:50:58;7.60;;;4.43;;
79204;SDS011;68632;47.512;19.104;2023-07-29T01:52:00;10.60;;;5.43;;
79204;SDS011;68632;47.512;19.104;2023-07-29T01:53:03;8.68;;;5.10;;
79204;SDS011;68632;47.512;19.104;2023-07-29T01:54:05;7.30;;;4.97;;
79204;SDS011;68632;47.512;19.104;2023-07-29T01:55:07;8.23;;;4.78;;
79204;SDS011;68632;47.512;19.104;2023-07-29T01:56:10;8.27;;;4.65;;
79204;SDS011;68632;47.512;19.104;2023-07-29T01:57:12;8.18;;;4.70;;
79204;SDS011;68632;47.512;19.104;2023-07-29T01:58:14;7.18;;;5.15;;
79204;SDS011;68632;47.512;19.104;2023-07-29T01:59:17;8.50;;;4.75;;
79204;SDS011;68632;47.512;19.104;2023-07-29T02:00:19;7.00;;;5.05;;
79204;SDS011;68632;47.512;19.104;2023-07-29T02:01:21;5.55;;;4.32;;
79204;SDS011;68632;47.512;19.104;2023-07-29T02:02:24;8.50;;;4.75;;
79204;SDS011;68632;47.512;19.104;2023-07-29T02:03:26;9.23;;;4.63;;
79204;SDS011;68632;47.512;19.104;2023-07-29T02:04:28;6.22;;;4.53;;
79204;SDS011;68632;47.512;19.104;2023-07-29T02:05:30;8.38;;;5.10;;
79204;SDS011;68632;47.512;19.104;2023-07-29T02:06:32;7.22;;;4.47;;
79204;SDS011;68632;47.512;19.104;2023-07-29T02:07:35;7.10;;;4.80;;
79204;SDS011;68632;47.512;19.104;2023-07-29T02:08:38;7.75;;;4.93;;
79204;SDS011;68632;47.512;19.104;2023-07-29T02:09:42;10.00;;;5.35;;
79204;SDS011;68632;47.512;19.104;2023-07-29T02:10:44;8.35;;;4.55;;
79204;SDS011;68632;47.512;19.104;2023-07-29T02:11:47;6.35;;;4.68;;
79204;SDS011;68632;47.512;19.104;2023-07-29T02:12:49;7.15;;;4.70;;
79204;SDS011;68632;47.512;19.104;2023-07-29T02:13:51;7.60;;;4.80;;
79204;SDS011;68632;47.512;19.104;2023-07-29T02:14:53;7.05;;;4.80;;
79204;SDS011;68632;47.512;19.104;2023-07-29T02:15:55;8.60;;;5.15;;
79204;SDS011;68632;47.512;19.104;2023-07-29T02:16:58;7.30;;;4.68;;
79204;SDS011;68632;47.512;19.104;2023-07-29T02:18:00;12.93;;;5.53;;
79204;SDS011;68632;47.512;19.104;2023-07-29T02:19:03;6.32;;;4.25;;
79204;SDS011;68632;47.512;19.104;2023-07-29T02:20:06;6.57;;;4.45;;
79204;SDS011;68632;47.512;19.104;2023-07-29T02:21:09;8.52;;;5.18;;
79204;SDS011;68632;47.512;19.104;2023-07-29T02:22:16;9.50;;;4.88;;
79204;SDS011;68632;47.512;19.104;2023-07-29T02:23:18;7.68;;;4.80;;
79204;SDS011;68632;47.512;19.104;2023-07-29T02:24:20;9.25;;;4.50;;
79204;SDS011;68632;47.512;19.104;2023-07-29T02:25:23;7.60;;;5.03;;
79204;SDS011;68632;47.512;19.104;2023-07-29T02:26:25;6.40;;;4.53;;
79204;SDS011;68632;47.512;19.104;2023-07-29T02:27:27;6.60;;;5.07;;
79204;SDS011;68632;47.512;19.104;2023-07-29T02:28:30;7.38;;;5.00;;
79204;SDS011;68632;47.512;19.104;2023-07-29T02:29:32;10.98;;;4.75;;
79204;SDS011;68632;47.512;19.104;2023-07-29T02:30:34;9.85;;;4.82;;
79204;SDS011;68632;47.512;19.104;2023-07-29T02:31:37;7.22;;;4.80;;
79204;SDS011;68632;47.512;19.104;2023-07-29T02:32:40;9.00;;;5.07;;
79204;SDS011;68632;47.512;19.104;2023-07-29T02:33:42;7.50;;;4.53;;
79204;SDS011;68632;47.512;19.104;2023-07-29T02:34:45;9.20;;;4.88;;
79204;SDS011;68632;47.512;19.104;2023-07-29T02:35:47;5.82;;;4.63;;
79204;SDS011;68632;47.512;19.104;2023-07-29T02:36:49;6.93;;;5.03;;
79204;SDS011;68632;47.512;19.104;2023-07-29T02:37:51;9.30;;;4.95;;
79204;SDS011;68632;47.512;19.104;2023-07-29T02:38:54;9.05;;;5.72;;
79204;SDS011;68632;47.512;19.104;2023-07-29T02:39:56;9.32;;;4.90;;
79204;SDS011;68632;47.512;19.104;2023-07-29T02:40:58;11.93;;;4.90;;
79204;SDS011;68632;47.512;19.104;2023-07-29T02:42:01;6.25;;;4.38;;
79204;SDS011;68632;47.512;19.104;2023-07-29T02:43:03;8.88;;;5.28;;
79204;SDS011;68632;47.512;19.104;2023-07-29T02:44:05;9.23;;;5.15;;
79204;SDS011;68632;47.512;19.104;2023-07-29T02:45:08;10.73;;;5.15;;
79204;SDS011;68632;47.512;19.104;2023-07-29T02:46:12;8.43;;;5.15;;
79204;SDS011;68632;47.512;19.104;2023-07-29T02:47:14;9.07;;;4.45;;
79204;SDS011;68632;47.512;19.104;2023-07-29T02:48:16;9.75;;;5.13;;
79204;SDS011;68632;47.512;19.104;2023-07-29T02:49:18;7.20;;;4.80;;
79204;SDS011;68632;47.512;19.104;2023-07-29T02:50:20;8.70;;;5.03;;
79204;SDS011;68632;47.512;19.104;2023-07-29T02:51:23;7.00;;;4.70;;
79204;SDS011;68632;47.512;19.104;2023-07-29T02:52:25;7.80;;;4.70;;
79204;SDS011;68632;47.512;19.104;2023-07-29T02:53:27;8.30;;;5.45;;
79204;SDS011;68632;47.512;19.104;2023-07-29T02:54:29;10.80;;;5.28;;
79204;SDS011;68632;47.512;19.104;2023-07-29T02:55:31;7.80;;;4.93;;
79204;SDS011;68632;47.512;19.104;2023-07-29T02:56:33;7.70;;;4.60;;
79204;SDS011;68632;47.512;19.104;2023-07-29T02:57:36;8.95;;;5.60;;
79204;SDS011;68632;47.512;19.104;2023-07-29T02:58:38;7.47;;;5.28;;
79204;SDS011;68632;47.512;19.104;2023-07-29T02:59:41;11.77;;;5.53;;
79204;SDS011;68632;47.512;19.104;2023-07-29T03:00:43;9.88;;;5.03;;
79204;SDS011;68632;47.512;19.104;2023-07-29T03:01:46;9.60;;;5.40;;
79204;SDS011;68632;47.512;19.104;2023-07-29T03:02:48;8.65;;;4.65;;
79204;SDS011;68632;47.512;19.104;2023-07-29T03:03:51;8.90;;;4.55;;
79204;SDS011;68632;47.512;19.104;2023-07-29T03:04:54;6.57;;;4.63;;
79204;SDS011;68632;47.512;19.104;2023-07-29T03:06:03;8.73;;;4.97;;
79204;SDS011;68632;47.512;19.104;2023-07-29T03:07:06;10.27;;;5.72;;
79204;SDS011;68632;47.512;19.104;2023-07-29T03:08:08;5.93;;;4.80;;
79204;SDS011;68632;47.512;19.104;2023-07-29T03:09:10;10.20;;;4.90;;
79204;SDS011;68632;47.512;19.104;2023-07-29T03:10:12;7.43;;;5.22;;
79204;SDS011;68632;47.512;19.104;2023-07-29T03:11:16;8.05;;;5.13;;
79204;SDS011;68632;47.512;19.104;2023-07-29T03:12:18;6.88;;;4.95;;
79204;SDS011;68632;47.512;19.104;2023-07-29T03:13:20;7.90;;;4.68;;
79204;SDS011;68632;47.512;19.104;2023-07-29T03:14:22;12.32;;;5.00;;
79204;SDS011;68632;47.512;19.104;2023-07-29T03:15:25;7.43;;;5.10;;
79204;SDS011;68632;47.512;19.104;2023-07-29T03:16:27;7.07;;;5.10;;
79204;SDS011;68632;47.512;19.104;2023-07-29T03:17:29;8.40;;;5.38;;
79204;SDS011;68632;47.512;19.104;2023-07-29T03:18:31;8.93;;;4.80;;
79204;SDS011;68632;47.512;19.104;2023-07-29T03:19:34;6.70;;;4.65;;
79204;SDS011;68632;47.512;19.104;2023-07-29T03:20:36;8.93;;;4.72;;
79204;SDS011;68632;47.512;19.104;2023-07-29T03:21:39;6.97;;;5.22;;
79204;SDS011;68632;47.512;19.104;2023-07-29T03:22:41;9.90;;;4.50;;
79204;SDS011;68632;47.512;19.104;2023-07-29T03:23:43;7.57;;;5.18;;
79204;SDS011;68632;47.512;19.104;2023-07-29T03:24:45;8.90;;;5.15;;
79204;SDS011;68632;47.512;19.104;2023-07-29T03:25:48;6.60;;;4.82;;
79204;SDS011;68632;47.512;19.104;2023-07-29T03:26:53;8.15;;;4.93;;
79204;SDS011;68632;47.512;19.104;2023-07-29T03:27:55;10.15;;;5.05;;
79204;SDS011;68632;47.512;19.104;2023-07-29T03:28:57;6.85;;;4.65;;
79204;SDS011;68632;47.512;19.104;2023-07-29T03:29:59;7.57;;;5.57;;
79204;SDS011;68632;47.512;19.104;2023-07-29T03:31:01;9.23;;;4.88;;
79204;SDS011;68632;47.512;19.104;2023-07-29T03:32:04;7.90;;;5.53;;
79204;SDS011;68632;47.512;19.104;2023-07-29T03:33:07;7.63;;;4.75;;
79204;SDS011;68632;47.512;19.104;2023-07-29T03:34:09;9.65;;;5.43;;
79204;SDS011;68632;47.512;19.104;2023-07-29T03:35:13;9.98;;;5.43;;
79204;SDS011;68632;47.512;19.104;2023-07-29T03:36:15;8.63;;;4.55;;
79204;SDS011;68632;47.512;19.104;2023-07-29T03:37:17;8.48;;;5.28;;
79204;SDS011;68632;47.512;19.104;2023-07-29T03:38:19;10.82;;;4.63;;
79204;SDS011;68632;47.512;19.104;2023-07-29T03:39:22;11.30;;;5.45;;
79204;SDS011;68632;47.512;19.104;2023-07-29T03:40:24;9.75;;;5.85;;
79204;SDS011;68632;47.512;19.104;2023-07-29T03:41:26;7.63;;;4.75;;
79204;SDS011;68632;47.512;19.104;2023-07-29T03:42:28;7.15;;;5.03;;
79204;SDS011;68632;47.512;19.104;2023-07-29T03:43:30;7.38;;;5.07;;
79204;SDS011;68632;47.512;19.104;2023-07-29T03:44:33;8.73;;;5.35;;
79204;SDS011;68632;47.512;19.104;2023-07-29T03:45:35;7.78;;;5.35;;
79204;SDS011;68632;47.512;19.104;2023-07-29T03:46:37;12.00;;;5.07;;
79204;SDS011;68632;47.512;19.104;2023-07-29T03:47:40;7.90;;;5.57;;
79204;SDS011;68632;47.512;19.104;2023-07-29T03:48:43;9.48;;;4.90;;
79204;SDS011;68632;47.512;19.104;2023-07-29T03:49:45;6.65;;;4.78;;
79204;SDS011;68632;47.512;19.104;2023-07-29T03:50:47;7.05;;;5.22;;
79204;SDS011;68632;47.512;19.104;2023-07-29T03:51:49;6.97;;;4.97;;
79204;SDS011;68632;47.512;19.104;2023-07-29T03:52:51;10.95;;;5.22;;
79204;SDS011;68632;47.512;19.104;2023-07-29T03:53:53;7.60;;;4.45;;
79204;SDS011;68632;47.512;19.104;2023-07-29T03:54:56;8.27;;;4.95;;
79204;SDS011;68632;47.512;19.104;2023-07-29T03:55:58;8.95;;;5.05;;
79204;SDS011;68632;47.512;19.104;2023-07-29T03:57:00;8.27;;;5.45;;
79204;SDS011;68632;47.512;19.104;2023-07-29T03:58:02;6.60;;;5.10;;
79204;SDS011;68632;47.512;19.104;2023-07-29T03:59:05;7.75;;;5.00;;
79204;SDS011;68632;47.512;19.104;2023-07-29T04:00:07;6.60;;;4.35;;
79204;SDS011;68632;47.512;19.104;2023-07-29T04:01:12;17.30;;;5.38;;
79204;SDS011;68632;47.512;19.104;2023-07-29T04:02:15;6.93;;;5.10;;
79204;SDS011;68632;47.512;19.104;2023-07-29T04:03:17;9.25;;;5.32;;
79204;SDS011;68632;47.512;19.104;2023-07-29T04:04:20;10.30;;;5.45;;
79204;SDS011;68632;47.512;19.104;2023-07-29T04:05:22;7.93;;;5.07;;
79204;SDS011;68632;47.512;19.104;2023-07-29T04:06:24;11.98;;;5.63;;
79204;SDS011;68632;47.512;19.104;2023-07-29T04:07:27;10.00;;;5.43;;
79204;SDS011;68632;47.512;19.104;2023-07-29T04:08:29;8.95;;;5.07;;
79204;SDS011;68632;47.512;19.104;2023-07-29T04:09:31;6.97;;;5.18;;
79204;SDS011;68632;47.512;19.104;2023-07-29T04:10:34;6.78;;;5.15;;
79204;SDS011;68632;47.512;19.104;2023-07-29T04:11:37;8.25;;;5.00;;
79204;SDS011;68632;47.512;19.104;2023-07-29T04:12:39;7.53;;;5.05;;
79204;SDS011;68632;47.512;19.104;2023-07-29T04:13:41;9.13;;;5.15;;
79204;SDS011;68632;47.512;19.104;2023-07-29T04:14:43;7.22;;;4.68;;
79204;SDS011;68632;47.512;19.104;2023-07-29T04:15:45;9.18;;;5.63;;
79204;SDS011;68632;47.512;19.104;2023-07-29T04:16:48;7.55;;;5.25;;
79204;SDS011;68632;47.512;19.104;2023-07-29T04:17:51;9.30;;;6.07;;
79204;SDS011;68632;47.512;19.104;2023-07-29T04:18:53;8.30;;;5.22;;
79204;SDS011;68632;47.512;19.104;2023-07-29T04:19:55;22.48;;;5.63;;
79204;SDS011;68632;47.512;19.104;2023-07-29T04:20:57;8.63;;;4.95;;
79204;SDS011;68632;47.512;19.104;2023-07-29T04:22:00;7.18;;;4.90;;
79204;SDS011;68632;47.512;19.104;2023-07-29T04:23:02;6.20;;;4.82;;
79204;SDS011;68632;47.512;19.104;2023-07-29T04:24:04;8.27;;;5.40;;
79204;SDS011;68632;47.512;19.104;2023-07-29T04:25:06;8.60;;;5.00;;
79204;SDS011;68632;47.512;19.104;2023-07-29T04:26:09;8.32;;;5.00;;
79204;SDS011;68632;47.512;19.104;2023-07-29T04:27:11;8.45;;;4.55;;
79204;SDS011;68632;47.512;19.104;2023-07-29T04:28:13;9.07;;;5.35;;
79204;SDS011;68632;47.512;19.104;2023-07-29T04:29:15;7.65;;;5.53;;
79204;SDS011;68632;47.512;19.104;2023-07-29T04:30:17;7.63;;;4.90;;
79204;SDS011;68632;47.512;19.104;2023-07-29T04:31:19;8.88;;;4.75;;
79204;SDS011;68632;47.512;19.104;2023-07-29T04:32:22;7.93;;;4.70;;
79204;SDS011;68632;47.512;19.104;2023-07-29T04:33:24;6.47;;;4.78;;
79204;SDS011;68632;47.512;19.104;2023-07-29T04:34:26;7.85;;;4.53;;
79204;SDS011;68632;47.512;19.104;2023-07-29T04:35:28;8.10;;;4.10;;
79204;SDS011;68632;47.512;19.104;2023-07-29T04:36:31;7.88;;;5.05;;
79204;SDS011;68632;47.512;19.104;2023-07-29T04:37:33;7.78;;;4.95;;
79204;SDS011;68632;47.512;19.104;2023-07-29T04:38:36;8.27;;;4.68;;
79204;SDS011;68632;47.512;19.104;2023-07-29T04:39:39;7.70;;;4.95;;
79204;SDS011;68632;47.512;19.104;2023-07-29T04:40:41;8.60;;;4.55;;
79204;SDS011;68632;47.512;19.104;2023-07-29T04:41:43;10.82;;;5.15;;
79204;SDS011;68632;47.512;19.104;2023-07-29T04:42:45;6.80;;;4.78;;
79204;SDS011;68632;47.512;19.104;2023-07-29T04:43:48;6.15;;;4.50;;
79204;SDS011;68632;47.512;19.104;2023-07-29T04:44:51;7.93;;;4.93;;
79204;SDS011;68632;47.512;19.104;2023-07-29T04:45:53;6.93;;;4.78;;
79204;SDS011;68632;47.512;19.104;2023-07-29T04:46:56;5.65;;;4.28;;
79204;SDS011;68632;47.512;19.104;2023-07-29T04:47:58;7.45;;;4.75;;
79204;SDS011;68632;47.512;19.104;2023-07-29T04:49:00;7.03;;;4.65;;
79204;SDS011;68632;47.512;19.104;2023-07-29T04:50:03;10.43;;;4.90;;
79204;SDS011;68632;47.512;19.104;2023-07-29T04:51:05;6.47;;;4.45;;
79204;SDS011;68632;47.512;19.104;2023-07-29T04:52:07;8.00;;;5.03;;
79204;SDS011;68632;47.512;19.104;2023-07-29T04:53:10;6.95;;;4.80;;
79204;SDS011;68632;47.512;19.104;2023-07-29T04:54:12;7.75;;;4.60;;
79204;SDS011;68632;47.512;19.104;2023-07-29T04:55:14;6.40;;;4.70;;
79204;SDS011;68632;47.512;19.104;2023-07-29T04:56:16;10.02;;;4.82;;
79204;SDS011;68632;47.512;19.104;2023-07-29T04:57:19;7.53;;;4.50;;
79204;SDS011;68632;47.512;19.104;2023-07-29T04:58:21;7.28;;;4.30;;
79204;SDS011;68632;47.512;19.104;2023-07-29T04:59:24;6.53;;;4.60;;
79204;SDS011;68632;47.512;19.104;2023-07-29T05:00:26;7.53;;;4.38;;
79204;SDS011;68632;47.512;19.104;2023-07-29T05:01:28;7.90;;;4.50;;
79204;SDS011;68632;47.512;19.104;2023-07-29T05:02:30;7.57;;;4.65;;
79204;SDS011;68632;47.512;19.104;2023-07-29T05:03:33;9.32;;;5.07;;
79204;SDS011;68632;47.512;19.104;2023-07-29T05:04:35;8.07;;;4.65;;
79204;SDS011;68632;47.512;19.104;2023-07-29T05:05:37;8.55;;;4.63;;
79204;SDS011;68632;47.512;19.104;2023-07-29T05:06:39;7.95;;;4.47;;
79204;SDS011;68632;47.512;19.104;2023-07-29T05:07:41;5.70;;;4.25;;
79204;SDS011;68632;47.512;19.104;2023-07-29T05:08:44;10.95;;;5.47;;
79204;SDS011;68632;47.512;19.104;2023-07-29T05:09:47;8.07;;;4.63;;
79204;SDS011;68632;47.512;19.104;2023-07-29T05:10:49;6.65;;;5.00;;
79204;SDS011;68632;47.512;19.104;2023-07-29T05:11:52;9.27;;;5.03;;
79204;SDS011;68632;47.512;19.104;2023-07-29T05:12:54;9.57;;;4.70;;
79204;SDS011;68632;47.512;19.104;2023-07-29T05:13:56;5.88;;;4.75;;
79204;SDS011;68632;47.512;19.104;2023-07-29T05:14:58;6.57;;;4.55;;
79204;SDS011;68632;47.512;19.104;2023-07-29T05:16:01;9.88;;;4.80;;
79204;SDS011;68632;47.512;19.104;2023-07-29T05:17:03;6.85;;;4.55;;
79204;SDS011;68632;47.512;19.104;2023-07-29T05:18:05;6.85;;;4.75;;
79204;SDS011;68632;47.512;19.104;2023-07-29T05:19:08;9.23;;;4.57;;
79204;SDS011;68632;47.512;19.104;2023-07-29T05:20:10;9.35;;;4.10;;
79204;SDS011;68632;47.512;19.104;2023-07-29T05:21:13;6.50;;;4.28;;
79204;SDS011;68632;47.512;19.104;2023-07-29T05:22:16;9.75;;;3.63;;
79204;SDS011;68632;47.512;19.104;2023-07-29T05:23:18;7.68;;;3.80;;
79204;SDS011;68632;47.512;19.104;2023-07-29T05:24:20;6.72;;;4.15;;
79204;SDS011;68632;47.512;19.104;2023-07-29T05:25:22;6.15;;;3.95;;
79204;SDS011;68632;47.512;19.104;2023-07-29T05:26:24;7.85;;;4.20;;
79204;SDS011;68632;47.512;19.104;2023-07-29T05:27:27;9.40;;;3.65;;
79204;SDS011;68632;47.512;19.104;2023-07-29T05:28:29;7.75;;;3.80;;
79204;SDS011;68632;47.512;19.104;2023-07-29T05:29:31;8.02;;;4.28;;
79204;SDS011;68632;47.512;19.104;2023-07-29T05:30:33;6.60;;;3.38;;
79204;SDS011;68632;47.512;19.104;2023-07-29T05:31:39;9.25;;;4.15;;
79204;SDS011;68632;47.512;19.104;2023-07-29T05:32:41;14.45;;;3.92;;
79204;SDS011;68632;47.512;19.104;2023-07-29T05:33:43;6.75;;;3.72;;
79204;SDS011;68632;47.512;19.104;2023-07-29T05:34:45;5.47;;;3.83;;
79204;SDS011;68632;47.512;19.104;2023-07-29T05:35:47;6.03;;;4.03;;
79204;SDS011;68632;47.512;19.104;2023-07-29T05:36:49;8.85;;;3.95;;
79204;SDS011;68632;47.512;19.104;2023-07-29T05:37:52;5.97;;;3.92;;
79204;SDS011;68632;47.512;19.104;2023-07-29T05:38:54;6.60;;;3.78;;
79204;SDS011;68632;47.512;19.104;2023-07-29T05:39:56;6.88;;;3.95;;
79204;SDS011;68632;47.512;19.104;2023-07-29T05:40:58;7.88;;;3.70;;
79204;SDS011;68632;47.512;19.104;2023-07-29T05:42:00;7.78;;;4.43;;
79204;SDS011;68632;47.512;19.104;2023-07-29T05:43:04;7.65;;;3.97;;
79204;SDS011;68632;47.512;19.104;2023-07-29T05:44:06;6.22;;;4.50;;
79204;SDS011;68632;47.512;19.104;2023-07-29T05:45:11;5.53;;;3.50;;
79204;SDS011;68632;47.512;19.104;2023-07-29T05:46:13;7.28;;;3.65;;
79204;SDS011;68632;47.512;19.104;2023-07-29T05:47:16;7.00;;;3.92;;
79204;SDS011;68632;47.512;19.104;2023-07-29T05:48:19;7.47;;;4.20;;
79204;SDS011;68632;47.512;19.104;2023-07-29T05:49:21;6.78;;;3.60;;
79204;SDS011;68632;47.512;19.104;2023-07-29T05:50:24;6.57;;;3.72;;
79204;SDS011;68632;47.512;19.104;2023-07-29T05:51:27;5.60;;;3.65;;
79204;SDS011;68632;47.512;19.104;2023-07-29T05:52:30;8.07;;;4.03;;
79204;SDS011;68632;47.512;19.104;2023-07-29T05:53:33;7.15;;;4.10;;
79204;SDS011;68632;47.512;19.104;2023-07-29T05:54:35;7.20;;;4.32;;
79204;SDS011;68632;47.512;19.104;2023-07-29T05:55:37;5.93;;;4.10;;
79204;SDS011;68632;47.512;19.104;2023-07-29T05:56:39;8.23;;;4.20;;
79204;SDS011;68632;47.512;19.104;2023-07-29T05:57:41;5.75;;;4.30;;
79204;SDS011;68632;47.512;19.104;2023-07-29T05:58:45;6.53;;;4.10;;
79204;SDS011;68632;47.512;19.104;2023-07-29T05:59:47;6.70;;;4.60;;
79204;SDS011;68632;47.512;19.104;2023-07-29T06:00:49;7.30;;;4.25;;
79204;SDS011;68632;47.512;19.104;2023-07-29T06:01:51;9.77;;;4.03;;
79204;SDS011;68632;47.512;19.104;2023-07-29T06:02:54;8.52;;;4.18;;
79204;SDS011;68632;47.512;19.104;2023-07-29T06:03:56;7.97;;;3.88;;
79204;SDS011;68632;47.512;19.104;2023-07-29T06:04:58;8.20;;;4.07;;
79204;SDS011;68632;47.512;19.104;2023-07-29T06:06:00;6.80;;;3.88;;
79204;SDS011;68632;47.512;19.104;2023-07-29T06:07:03;7.63;;;3.90;;
79204;SDS011;68632;47.512;19.104;2023-07-29T06:08:05;6.25;;;4.40;;
79204;SDS011;68632;47.512;19.104;2023-07-29T06:09:07;6.10;;;4.28;;
79204;SDS011;68632;47.512;19.104;2023-07-29T06:10:10;7.85;;;4.13;;
79204;SDS011;68632;47.512;19.104;2023-07-29T06:11:14;6.57;;;3.78;;
79204;SDS011;68632;47.512;19.104;2023-07-29T06:12:16;7.15;;;4.22;;
79204;SDS011;68632;47.512;19.104;2023-07-29T06:13:18;7.07;;;4.18;;
79204;SDS011;68632;47.512;19.104;2023-07-29T06:14:21;9.75;;;4.53;;
79204;SDS011;68632;47.512;19.104;2023-07-29T06:15:23;7.13;;;4.15;;
79204;SDS011;68632;47.512;19.104;2023-07-29T06:16:25;5.50;;;3.95;;
79204;SDS011;68632;47.512;19.104;2023-07-29T06:17:27;9.48;;;4.78;;
79204;SDS011;68632;47.512;19.104;2023-07-29T06:18:30;7.20;;;4.28;;
79204;SDS011;68632;47.512;19.104;2023-07-29T06:19:32;6.07;;;4.25;;